Time;durP1;ratioP1;P1;durP2;ratioP2;P2;SDS_P1;SDS_P2;PMS_P1;PMS_P2;Temp;Humidity;BMP_temperature;BMP_pressure;BME280_temperature;BME280_humidity;BME280_pressure;Samples;Min_cycle;Max_cycle;Signal;HPM_P1;HPM_P2
2022/11/13 00:01:19;;;;;;;50.95;14.90;;;4.70;99.90;;;;;;5054777;28;20408;-77
2022/11/13 00:03:45;;;;;;;43.90;16.08;;;4.70;99.90;;;;;;5056018;28;20017;-77
2022/11/13 00:06:12;;;;;;;38.88;14.95;;;4.70;99.90;;;;;;5056183;28;20473;-77
2022/11/13 00:08:41;;;;;;;33.17;14.68;;;4.70;99.90;;;;;;5054745;28;20473;-77
2022/11/13 00:11:17;;;;;;;43.60;15.55;;;4.70;99.90;;;;;;5054400;28;20382;-77
2022/11/13 00:13:43;;;;;;;38.65;15.65;;;4.80;99.90;;;;;;5054778;28;20036;-77
2022/11/13 00:16:20;;;;;;;47.05;17.83;;;4.80;99.90;;;;;;5055208;28;20112;-78
2022/11/13 00:18:46;;;;;;;33.33;18.65;;;4.80;99.90;;;;;;5056019;28;20493;-78
2022/11/13 00:21:15;;;;;;;45.15;20.80;;;4.80;99.90;;;;;;5055154;28;20135;-78
2022/11/13 00:23:42;;;;;;;47.75;20.30;;;4.80;99.90;;;;;;5052846;28;20025;-79
2022/11/13 00:26:29;;;;;;;46.45;18.98;;;4.80;99.90;;;;;;5058479;28;20049;-79
2022/11/13 00:28:57;;;;;;;38.15;19.15;;;4.80;99.90;;;;;;5060610;28;20043;-78
2022/11/13 00:31:32;;;;;;;35.22;15.25;;;4.80;99.90;;;;;;5059847;28;20021;-79
2022/11/13 00:34:01;;;;;;;37.45;14.35;;;4.80;99.90;;;;;;5058980;28;20478;-78
2022/11/13 00:36:27;;;;;;;23.13;12.07;;;4.80;99.90;;;;;;5056174;28;20055;-78
2022/11/13 00:38:54;;;;;;;30.55;13.48;;;4.80;99.90;;;;;;5053590;28;20037;-78
2022/11/13 00:41:31;;;;;;;39.47;12.98;;;4.80;99.90;;;;;;5056785;28;20029;-77
2022/11/13 00:43:58;;;;;;;20.83;11.88;;;4.80;99.90;;;;;;5055878;28;20029;-77
2022/11/13 00:46:23;;;;;;;39.38;13.80;;;4.70;99.90;;;;;;5055859;28;20107;-78
2022/11/13 00:48:58;;;;;;;28.50;13.77;;;4.80;99.90;;;;;;5055509;28;20481;-77
2022/11/13 00:51:30;;;;;;;52.38;15.27;;;4.70;99.90;;;;;;5055504;28;20025;-77
2022/11/13 00:54:05;;;;;;;48.35;14.45;;;4.70;99.90;;;;;;5053804;28;20024;-76
2022/11/13 00:56:36;;;;;;;36.03;12.65;;;4.70;99.90;;;;;;5053209;28;20051;-77
2022/11/13 00:59:02;;;;;;;37.83;13.48;;;4.70;99.90;;;;;;5053739;28;20033;-76
2022/11/13 01:01:30;;;;;;;29.05;13.98;;;4.70;99.90;;;;;;5049980;28;20033;-77
2022/11/13 01:03:56;;;;;;;36.15;13.63;;;4.70;99.90;;;;;;5051818;28;20044;-77
2022/11/13 01:06:26;;;;;;;21.15;11.32;;;4.70;99.90;;;;;;5053472;28;20021;-76
2022/11/13 01:08:57;;;;;;;32.28;12.75;;;4.60;99.90;;;;;;5047223;28;20029;-77
2022/11/13 01:11:25;;;;;;;25.42;11.23;;;4.60;99.90;;;;;;5048212;28;20100;-77
2022/11/13 01:13:51;;;;;;;17.00;9.45;;;4.60;99.90;;;;;;5048967;28;20382;-76
2022/11/13 01:16:23;;;;;;;15.02;9.93;;;4.60;99.90;;;;;;5048532;28;20033;-77
2022/11/13 01:18:49;;;;;;;20.20;9.38;;;4.60;99.90;;;;;;5050437;28;20017;-77
2022/11/13 01:21:24;;;;;;;15.82;9.40;;;4.60;99.90;;;;;;5049213;23;20052;-77
2022/11/13 01:23:53;;;;;;;17.35;9.60;;;4.60;99.90;;;;;;5027323;28;20025;-77
2022/11/13 01:26:28;;;;;;;17.10;9.93;;;4.60;99.90;;;;;;5024901;28;20589;-76
2022/11/13 01:29:06;;;;;;;23.27;10.93;;;4.60;99.90;;;;;;5023245;28;20116;-77
2022/11/13 01:31:34;;;;;;;21.85;9.77;;;4.60;99.90;;;;;;5026202;28;20052;-77
2022/11/13 01:34:00;;;;;;;18.45;9.85;;;4.60;99.90;;;;;;5026836;28;20371;-76
2022/11/13 01:36:27;;;;;;;16.33;10.68;;;4.60;99.90;;;;;;5026700;28;20104;-76
2022/11/13 01:38:56;;;;;;;17.45;10.25;;;4.60;99.90;;;;;;5031654;28;20029;-76
2022/11/13 01:41:28;;;;;;;34.47;9.38;;;4.60;99.90;;;;;;5024784;28;20415;-76
2022/11/13 01:44:00;;;;;;;70.63;11.60;;;4.60;99.90;;;;;;5029593;28;20029;-76
2022/11/13 01:46:26;;;;;;;25.85;10.23;;;4.50;99.90;;;;;;5026943;28;20080;-76
2022/11/13 01:49:09;;;;;;;37.95;9.63;;;4.50;99.90;;;;;;5026482;28;20030;-76
2022/11/13 01:51:41;;;;;;;31.63;9.38;;;4.50;99.90;;;;;;5025005;28;20022;-76
2022/11/13 01:54:15;;;;;;;17.50;9.00;;;4.50;99.90;;;;;;5036565;28;20049;-76
2022/11/13 01:56:41;;;;;;;56.75;10.38;;;4.50;99.90;;;;;;5024274;28;20462;-76
2022/11/13 01:59:20;;;;;;;37.08;9.88;;;4.40;99.90;;;;;;5025710;28;20064;-76
2022/11/13 02:01:46;;;;;;;37.70;9.10;;;4.50;99.90;;;;;;5021249;28;20048;-76
2022/11/13 02:04:15;;;;;;;48.50;8.95;;;4.40;99.90;;;;;;5026646;28;20034;-75
2022/11/13 02:07:06;;;;;;;23.27;8.23;;;4.40;99.90;;;;;;5025693;28;20030;-76
2022/11/13 02:09:43;;;;;;;38.80;9.15;;;4.40;99.90;;;;;;5028130;28;20022;-75
2022/11/13 02:12:39;;;;;;;22.52;7.93;;;4.40;99.90;;;;;;5030126;28;20017;-75
2022/11/13 02:15:06;;;;;;;38.95;10.45;;;4.40;99.90;;;;;;5022967;28;20064;-74
2022/11/13 02:18:05;;;;;;;41.15;8.60;;;4.40;99.90;;;;;;5045235;28;20017;-76
2022/11/13 02:20:39;;;;;;;21.30;7.47;;;4.40;99.90;;;;;;5020506;28;20075;-77
2022/11/13 02:23:20;;;;;;;29.65;9.02;;;4.30;99.90;;;;;;5028871;28;20508;-77
2022/11/13 02:25:51;;;;;;;17.55;8.10;;;4.30;99.90;;;;;;5026698;28;20013;-77
2022/11/13 02:28:16;;;;;;;17.08;8.35;;;4.30;99.90;;;;;;5032042;28;20332;-77
2022/11/13 02:30:42;;;;;;;11.30;7.18;;;4.30;99.90;;;;;;5029150;28;20018;-76
2022/11/13 02:33:31;;;;;;;18.75;8.45;;;4.30;99.90;;;;;;5024176;28;20112;-76
2022/11/13 02:35:58;;;;;;;24.58;8.40;;;4.30;99.90;;;;;;5025017;28;20073;-77
2022/11/13 02:38:26;;;;;;;26.00;8.88;;;4.30;99.90;;;;;;5024981;28;20546;-76
2022/11/13 02:40:55;;;;;;;20.52;10.95;;;4.30;99.90;;;;;;5024654;28;20059;-76
2022/11/13 02:43:23;;;;;;;23.85;9.77;;;4.30;99.90;;;;;;5023532;28;20112;-77
2022/11/13 02:45:52;;;;;;;15.73;9.02;;;4.30;99.90;;;;;;5025420;28;20382;-77
2022/11/13 02:48:17;;;;;;;12.30;7.95;;;4.20;99.90;;;;;;5022961;28;20033;-76
2022/11/13 02:50:43;;;;;;;11.05;6.68;;;4.20;99.90;;;;;;5022873;28;20032;-77
2022/11/13 02:53:09;;;;;;;19.05;6.57;;;4.20;99.90;;;;;;5025992;28;20041;-75
2022/11/13 02:55:35;;;;;;;11.35;5.63;;;4.30;99.90;;;;;;5027789;28;20120;-75
2022/11/13 02:58:01;;;;;;;11.38;6.15;;;4.20;99.90;;;;;;5026252;28;20045;-76
2022/11/13 03:00:32;;;;;;;15.40;6.57;;;4.20;99.90;;;;;;5029938;28;20161;-76
2022/11/13 03:03:01;;;;;;;22.00;5.95;;;4.20;99.90;;;;;;5033004;28;20426;-76
2022/11/13 03:05:27;;;;;;;21.33;5.60;;;4.10;99.90;;;;;;5029384;28;20417;-76
2022/11/13 03:07:52;;;;;;;9.70;6.00;;;4.10;99.90;;;;;;5029713;28;20022;-75
2022/11/13 03:10:21;;;;;;;13.52;5.90;;;4.00;99.90;;;;;;5023433;28;20022;-76
2022/11/13 03:12:46;;;;;;;9.52;6.00;;;4.00;99.90;;;;;;5029627;28;20022;-75
2022/11/13 03:15:12;;;;;;;9.27;5.95;;;4.00;99.90;;;;;;5033203;28;20075;-77
2022/11/13 03:17:41;;;;;;;17.42;6.32;;;3.90;99.90;;;;;;5035607;28;20412;-77
2022/11/13 03:20:16;;;;;;;22.30;6.00;;;3.90;99.90;;;;;;5032276;28;20048;-77
2022/11/13 03:22:41;;;;;;;10.05;5.72;;;3.80;99.90;;;;;;5026391;28;20104;-77
2022/11/13 03:25:07;;;;;;;11.55;7.40;;;3.90;99.90;;;;;;5028671;28;20060;-77
2022/11/13 03:27:33;;;;;;;10.93;6.43;;;3.90;99.90;;;;;;5033688;28;20028;-77
2022/11/13 03:29:58;;;;;;;11.82;6.95;;;3.90;99.90;;;;;;5028845;28;20022;-76
2022/11/13 03:32:27;;;;;;;12.20;6.68;;;3.90;99.90;;;;;;5031325;28;20030;-76
2022/11/13 03:34:53;;;;;;;10.82;6.50;;;4.00;99.90;;;;;;5034385;28;20029;-76
2022/11/13 03:37:18;;;;;;;15.25;7.25;;;4.00;99.90;;;;;;5031951;28;20037;-76
2022/11/13 03:39:44;;;;;;;11.52;6.32;;;4.00;99.90;;;;;;5030327;28;20104;-76
2022/11/13 03:42:10;;;;;;;12.50;7.30;;;4.00;99.90;;;;;;5033926;28;20111;-77
2022/11/13 03:44:35;;;;;;;9.45;6.78;;;4.00;99.90;;;;;;5035431;28;20101;-77
2022/11/13 03:47:01;;;;;;;23.05;6.32;;;4.00;99.90;;;;;;5023615;28;20026;-77
2022/11/13 03:49:27;;;;;;;36.25;7.55;;;4.00;99.90;;;;;;5019401;28;20087;-77
2022/11/13 03:51:55;;;;;;;10.02;6.70;;;3.90;99.90;;;;;;5031976;28;20466;-77
2022/11/13 03:54:23;;;;;;;10.90;6.97;;;3.90;99.90;;;;;;5031293;28;20037;-76
2022/11/13 03:56:49;;;;;;;20.83;6.45;;;3.80;99.90;;;;;;5035686;28;20478;-76
2022/11/13 03:59:15;;;;;;;14.27;6.20;;;3.80;99.90;;;;;;5034333;28;20112;-76
2022/11/13 04:01:43;;;;;;;7.60;5.35;;;3.80;99.90;;;;;;5036130;28;20025;-76
2022/11/13 04:04:10;;;;;;;8.18;5.88;;;3.80;99.90;;;;;;5035435;28;20033;-77
2022/11/13 04:06:48;;;;;;;11.02;6.15;;;3.70;99.90;;;;;;5034415;28;20022;-77
2022/11/13 04:09:13;;;;;;;50.83;7.35;;;3.80;99.90;;;;;;5034522;28;20018;-77
2022/11/13 04:11:39;;;;;;;14.45;6.93;;;3.80;99.90;;;;;;5035926;28;20374;-77
2022/11/13 04:14:11;;;;;;;12.93;6.50;;;3.80;99.90;;;;;;5035452;28;20482;-76
2022/11/13 04:16:42;;;;;;;51.05;7.72;;;3.80;99.90;;;;;;5033833;28;20036;-76
2022/11/13 04:19:20;;;;;;;46.60;6.65;;;3.80;99.90;;;;;;5029944;28;20030;-76
2022/11/13 04:21:46;;;;;;;27.67;7.90;;;3.80;99.90;;;;;;5025507;28;20040;-76
2022/11/13 04:24:14;;;;;;;49.28;9.52;;;3.80;99.90;;;;;;5019301;28;20143;-78
2022/11/13 04:26:40;;;;;;;14.98;6.32;;;3.80;99.90;;;;;;5037793;28;20544;-78
2022/11/13 04:29:06;;;;;;;18.75;6.97;;;3.80;99.90;;;;;;5049442;28;20018;-78
2022/11/13 04:31:31;;;;;;;71.70;7.75;;;3.90;99.90;;;;;;5036176;28;20040;-77
2022/11/13 04:33:57;;;;;;;16.33;5.90;;;3.80;99.90;;;;;;5026785;28;20079;-78
2022/11/13 04:36:22;;;;;;;27.30;7.05;;;3.80;99.90;;;;;;5035302;28;20026;-77
2022/11/13 04:38:48;;;;;;;61.15;9.15;;;3.80;99.90;;;;;;5026670;28;20035;-78
2022/11/13 04:44:04;;;;;;;33.17;6.88;;;3.90;99.90;;;;;;5028746;28;20036;-78
2022/11/13 04:46:30;;;;;;;25.73;7.20;;;3.80;99.90;;;;;;5028518;28;20022;-78
2022/11/13 04:49:04;;;;;;;47.88;7.22;;;3.90;99.90;;;;;;5034310;28;20025;-78
2022/11/13 04:51:30;;;;;;;66.85;8.07;;;3.80;99.90;;;;;;5034531;28;20043;-78
2022/11/13 04:53:59;;;;;;;25.10;7.65;;;3.80;99.90;;;;;;5028720;28;20113;-77
2022/11/13 04:56:25;;;;;;;41.97;7.40;;;3.80;99.90;;;;;;5029324;28;20057;-76
2022/11/13 04:58:50;;;;;;;42.13;7.97;;;3.70;99.90;;;;;;5028662;28;20057;-76
2022/11/13 05:01:25;;;;;;;24.17;6.25;;;3.70;99.90;;;;;;5030569;28;20522;-77
2022/11/13 05:03:50;;;;;;;19.67;6.80;;;3.70;99.90;;;;;;5014461;28;20029;-77
2022/11/13 05:06:19;;;;;;;25.33;6.25;;;3.60;99.90;;;;;;5022527;28;20075;-76
2022/11/13 05:08:46;;;;;;;101.63;8.88;;;3.60;99.90;;;;;;5033321;28;20373;-78
2022/11/13 05:11:14;;;;;;;20.45;6.30;;;3.60;99.90;;;;;;5033068;28;20029;-77
2022/11/13 05:13:40;;;;;;;28.80;6.72;;;3.60;99.90;;;;;;5034239;28;20068;-77
2022/11/13 05:16:08;;;;;;;28.65;6.28;;;3.60;99.90;;;;;;5034314;28;20057;-76
2022/11/13 05:18:40;;;;;;;12.05;7.18;;;3.60;99.90;;;;;;5034141;28;20095;-77
2022/11/13 05:21:09;;;;;;;15.32;5.97;;;3.60;99.90;;;;;;5033000;28;20044;-76
2022/11/13 05:23:41;;;;;;;10.90;5.50;;;3.60;99.90;;;;;;5033065;28;20143;-78
2022/11/13 05:26:12;;;;;;;36.78;6.35;;;3.50;99.90;;;;;;5035104;28;20021;-78
2022/11/13 05:28:41;;;;;;;41.20;6.32;;;3.50;99.90;;;;;;5033724;28;20109;-77
2022/11/13 05:31:15;;;;;;;7.82;5.70;;;3.50;99.90;;;;;;5033118;28;20029;-77
2022/11/13 05:33:41;;;;;;;;;;;3.50;99.90;;;;;;5036023;28;20037;-78
2022/11/13 05:36:17;;;;;;;11.32;5.28;;;3.50;99.90;;;;;;5033730;28;20350;-78
2022/11/13 05:38:46;;;;;;;9.77;5.28;;;3.50;99.90;;;;;;5027154;28;20393;-77
2022/11/13 05:41:17;;;;;;;9.40;5.07;;;3.50;99.90;;;;;;5040696;28;20079;-78
2022/11/13 05:43:43;;;;;;;9.00;5.93;;;3.50;99.90;;;;;;5030876;28;20053;-78
2022/11/13 05:46:12;;;;;;;11.95;5.72;;;3.40;99.90;;;;;;5033515;28;20440;-77
2022/11/13 05:48:41;;;;;;;6.72;4.60;;;3.40;99.90;;;;;;5033742;28;20029;-77
2022/11/13 05:51:07;;;;;;;8.68;5.03;;;3.40;99.90;;;;;;5030526;28;20029;-78
2022/11/13 05:53:34;;;;;;;9.68;5.10;;;3.40;99.90;;;;;;5032856;28;20031;-78
2022/11/13 05:56:05;;;;;;;9.20;5.00;;;3.50;99.90;;;;;;5034952;28;20018;-78
2022/11/13 05:58:31;;;;;;;9.45;4.38;;;3.50;99.90;;;;;;5034534;28;20441;-77
2022/11/13 06:01:06;;;;;;;31.90;5.13;;;3.50;99.90;;;;;;5025188;28;20040;-77
2022/11/13 06:03:35;;;;;;;10.75;4.90;;;3.40;99.90;;;;;;5029579;28;20025;-77
2022/11/13 06:06:01;;;;;;;20.63;4.90;;;3.40;99.90;;;;;;5033564;28;20036;-77
2022/11/13 06:08:27;;;;;;;21.65;5.68;;;3.30;99.90;;;;;;5034782;28;20021;-76
2022/11/13 06:10:57;;;;;;;21.90;5.30;;;3.30;99.90;;;;;;5025968;28;20382;-76
2022/11/13 06:13:29;;;;;;;12.60;5.70;;;3.30;99.90;;;;;;5032853;28;20505;-76
2022/11/13 06:16:02;;;;;;;27.83;5.32;;;3.30;99.90;;;;;;5032595;28;20505;-76
2022/11/13 06:18:31;;;;;;;;;;;3.30;99.90;;;;;;5028910;28;20026;-77
2022/11/13 06:21:05;;;;;;;22.17;5.80;;;3.20;99.90;;;;;;5028407;28;19927;-76
2022/11/13 06:23:40;;;;;;;11.48;5.28;;;3.20;99.90;;;;;;5029961;28;20041;-76
2022/11/13 06:26:13;;;;;;;15.65;4.68;;;3.20;99.90;;;;;;5024923;28;20021;-76
2022/11/13 06:28:39;;;;;;;23.47;5.83;;;3.20;99.90;;;;;;5032638;28;20022;-77
2022/11/13 06:31:10;;;;;;;25.20;4.75;;;3.20;99.90;;;;;;5027834;28;20286;-76
2022/11/13 06:33:43;;;;;;;12.20;4.53;;;3.20;99.90;;;;;;5034129;28;20016;-77
2022/11/13 06:36:23;;;;;;;22.67;6.07;;;3.10;99.90;;;;;;5031558;28;20591;-77
2022/11/13 06:38:49;;;;;;;13.88;4.60;;;3.10;99.90;;;;;;5031852;28;20509;-77
2022/11/13 06:41:20;;;;;;;13.10;5.50;;;3.10;99.90;;;;;;5036525;28;20033;-77
2022/11/13 06:43:47;;;;;;;19.85;4.57;;;3.10;99.90;;;;;;5035470;28;20026;-77
2022/11/13 06:46:20;;;;;;;7.97;5.53;;;3.10;99.90;;;;;;5030244;28;20025;-75
2022/11/13 06:48:49;;;;;;;10.55;4.97;;;3.10;99.90;;;;;;5026793;28;20029;-76
2022/11/13 06:51:36;;;;;;;12.07;4.95;;;3.10;99.90;;;;;;5031425;28;20029;-76
2022/11/13 06:54:05;;;;;;;8.57;4.65;;;3.10;99.90;;;;;;5027761;28;20096;-77
2022/11/13 06:56:31;;;;;;;10.63;5.57;;;3.10;99.90;;;;;;5033601;28;20033;-76
2022/11/13 06:59:05;;;;;;;16.85;5.18;;;3.10;99.90;;;;;;5030995;28;20043;-77
2022/11/13 07:01:43;;;;;;;10.30;5.10;;;3.10;99.90;;;;;;5029547;28;20037;-77
2022/11/13 07:04:12;;;;;;;7.45;5.03;;;3.10;99.90;;;;;;5032589;28;20041;-77
2022/11/13 07:06:41;;;;;;;12.93;5.55;;;3.00;99.90;;;;;;5027525;28;20021;-77
2022/11/13 07:09:07;;;;;;;14.15;5.72;;;3.00;99.90;;;;;;5038855;28;20489;-76
2022/11/13 07:11:36;;;;;;;10.43;6.13;;;2.90;99.90;;;;;;5031459;28;21103;-77
2022/11/13 07:14:01;;;;;;;13.73;4.90;;;2.90;99.90;;;;;;5029792;28;20039;-77
2022/11/13 07:16:30;;;;;;;12.40;5.13;;;2.80;99.90;;;;;;5032173;28;20100;-77
2022/11/13 07:18:59;;;;;;;5.93;4.53;;;2.80;99.90;;;;;;5032875;28;20018;-77
2022/11/13 07:21:28;;;;;;;7.90;5.35;;;2.70;99.90;;;;;;5033698;28;20033;-75
2022/11/13 07:23:54;;;;;;;6.40;4.43;;;2.70;99.90;;;;;;5030864;28;20386;-74
2022/11/13 07:26:20;;;;;;;10.45;4.18;;;2.80;99.90;;;;;;5028674;28;20022;-75
2022/11/13 07:28:46;;;;;;;10.90;4.65;;;2.70;99.90;;;;;;5031531;28;21286;-76
2022/11/13 07:31:13;;;;;;;8.60;6.07;;;2.70;99.90;;;;;;5025833;28;20397;-75
2022/11/13 07:33:39;;;;;;;9.45;5.88;;;2.80;99.90;;;;;;5028640;28;20102;-75
2022/11/13 07:36:06;;;;;;;21.20;5.18;;;2.80;99.90;;;;;;5032715;28;20026;-76
2022/11/13 07:38:32;;;;;;;12.48;6.70;;;2.80;99.90;;;;;;5027848;28;20025;-76
2022/11/13 07:40:58;;;;;;;16.92;6.20;;;2.80;99.90;;;;;;5030469;28;20398;-75
2022/11/13 07:43:27;;;;;;;9.60;5.78;;;2.80;99.90;;;;;;5032589;28;20052;-74
2022/11/13 07:45:54;;;;;;;10.27;5.72;;;2.80;99.90;;;;;;5028238;28;20022;-75
2022/11/13 07:48:26;;;;;;;9.07;5.80;;;2.80;99.90;;;;;;5028864;28;21241;-76
2022/11/13 07:50:58;;;;;;;9.80;5.63;;;2.90;99.90;;;;;;5027571;28;20112;-75
2022/11/13 07:53:24;;;;;;;7.60;5.18;;;2.90;99.90;;;;;;5025014;28;20026;-70
2022/11/13 07:55:49;;;;;;;14.20;7.68;;;2.90;99.90;;;;;;5027228;28;20030;-70
2022/11/13 07:58:15;;;;;;;8.77;5.95;;;2.90;99.90;;;;;;5024460;28;20041;-69
2022/11/13 08:00:52;;;;;;;6.93;5.18;;;3.00;99.90;;;;;;5025666;28;20036;-70
2022/11/13 08:03:18;;;;;;;9.27;5.75;;;3.10;99.90;;;;;;5024745;28;20367;-69
2022/11/13 08:05:47;;;;;;;8.35;5.75;;;3.10;99.90;;;;;;5016861;28;20047;-74
2022/11/13 08:08:18;;;;;;;8.38;5.82;;;3.10;99.90;;;;;;5019703;28;20386;-75
2022/11/13 08:10:47;;;;;;;14.75;7.03;;;3.20;99.90;;;;;;5028855;28;20030;-75
2022/11/13 08:13:12;;;;;;;11.13;7.53;;;3.20;99.90;;;;;;5030023;28;20386;-75
2022/11/13 08:15:47;;;;;;;14.40;6.70;;;3.30;99.90;;;;;;5028631;28;20021;-75
2022/11/13 08:18:13;;;;;;;10.90;7.40;;;3.30;99.90;;;;;;5027156;28;20055;-75
2022/11/13 08:20:38;;;;;;;13.27;7.18;;;3.40;99.90;;;;;;5033032;28;20085;-75
2022/11/13 08:23:10;;;;;;;10.82;8.05;;;3.40;99.90;;;;;;5029944;28;20067;-76
2022/11/13 08:25:51;;;;;;;10.23;7.20;;;3.40;99.90;;;;;;5033166;28;20029;-75
2022/11/13 08:28:17;;;;;;;13.50;7.03;;;3.50;99.90;;;;;;5028850;28;20026;-76
2022/11/13 08:30:43;;;;;;;9.30;7.00;;;3.50;99.90;;;;;;5033158;28;20025;-76
2022/11/13 08:33:09;;;;;;;10.13;6.88;;;3.60;99.90;;;;;;5027137;28;20037;-77
2022/11/13 08:35:40;;;;;;;11.07;7.30;;;3.60;99.90;;;;;;5025526;28;20026;-78
2022/11/13 08:38:07;;;;;;;14.65;8.93;;;3.60;99.90;;;;;;5031764;28;20169;-78
2022/11/13 08:40:39;;;;;;;11.23;6.95;;;3.60;99.90;;;;;;5032389;28;20049;-77
2022/11/13 08:43:05;;;;;;;8.48;6.55;;;3.70;99.90;;;;;;5031040;28;20037;-77
2022/11/13 08:45:36;;;;;;;10.77;7.28;;;3.80;99.90;;;;;;5028414;28;20082;-77
2022/11/13 08:48:05;;;;;;;11.93;7.03;;;3.80;99.90;;;;;;5029427;28;20040;-77
2022/11/13 08:50:32;;;;;;;11.98;7.47;;;3.90;99.90;;;;;;5030109;28;20462;-76
2022/11/13 08:53:02;;;;;;;11.45;7.07;;;3.90;99.90;;;;;;5030975;28;20116;-77
2022/11/13 08:55:28;;;;;;;10.45;7.13;;;3.90;99.90;;;;;;5030200;28;20017;-76
2022/11/13 08:57:58;;;;;;;10.10;6.55;;;4.00;99.90;;;;;;5032295;28;20083;-76
2022/11/13 09:00:28;;;;;;;8.90;6.72;;;4.00;99.90;;;;;;5027933;28;20108;-77
2022/11/13 09:02:58;;;;;;;11.57;7.25;;;4.00;99.90;;;;;;5027732;28;20021;-77
2022/11/13 09:05:24;;;;;;;9.93;6.22;;;4.10;99.90;;;;;;5030201;28;20017;-77
2022/11/13 09:07:50;;;;;;;12.35;6.70;;;4.10;99.90;;;;;;5026132;28;20474;-77
2022/11/13 09:10:17;;;;;;;18.15;9.88;;;4.10;99.90;;;;;;5026410;28;20113;-77
2022/11/13 09:12:46;;;;;;;10.68;6.60;;;4.20;99.90;;;;;;5022856;28;20029;-77
2022/11/13 09:15:17;;;;;;;11.23;7.10;;;4.20;99.90;;;;;;5032538;28;20951;-77
2022/11/13 09:17:43;;;;;;;17.45;8.98;;;4.20;99.90;;;;;;5029215;28;20078;-77
2022/11/13 09:20:09;;;;;;;13.70;8.85;;;4.20;99.90;;;;;;5029238;28;20117;-77
2022/11/13 09:22:34;;;;;;;11.85;7.13;;;4.30;99.90;;;;;;5033984;28;20037;-77
2022/11/13 09:25:00;;;;;;;12.30;7.47;;;4.30;99.90;;;;;;5031401;28;20026;-77
2022/11/13 09:27:26;;;;;;;12.55;8.50;;;4.40;99.90;;;;;;5035436;28;20017;-78
2022/11/13 09:29:51;;;;;;;10.07;6.82;;;4.30;99.90;;;;;;5029634;28;20021;-78
2022/11/13 09:32:17;;;;;;;11.77;7.45;;;4.40;99.90;;;;;;5026862;28;20032;-77
2022/11/13 09:34:43;;;;;;;13.80;8.00;;;4.40;99.90;;;;;;5029119;28;20608;-77
2022/11/13 09:37:08;;;;;;;12.43;7.70;;;4.40;99.90;;;;;;5026866;28;20123;-77
2022/11/13 09:39:34;;;;;;;12.90;8.32;;;4.40;99.90;;;;;;5028277;28;20041;-76
2022/11/13 09:42:20;;;;;;;14.90;9.07;;;4.50;99.90;;;;;;5023300;28;20030;-76
2022/11/13 09:44:47;;;;;;;12.68;8.38;;;4.50;99.90;;;;;;5028360;28;20040;-76
2022/11/13 09:47:20;;;;;;;12.77;8.48;;;4.50;99.90;;;;;;5021195;28;20035;-76
2022/11/13 09:49:56;;;;;;;14.15;9.10;;;4.60;99.90;;;;;;5024192;28;20037;-77
2022/11/13 09:52:37;;;;;;;14.57;9.23;;;4.70;99.90;;;;;;5031378;28;20164;-77
2022/11/13 09:55:04;;;;;;;15.35;8.88;;;4.70;99.90;;;;;;5014977;28;20454;-75
2022/11/13 09:57:49;;;;;;;13.25;8.27;;;4.80;99.90;;;;;;5025636;28;20033;-77
2022/11/13 10:00:18;;;;;;;13.27;9.10;;;4.90;99.90;;;;;;5026792;28;20053;-77
2022/11/13 10:03:02;;;;;;;14.25;9.00;;;4.90;99.90;;;;;;5022969;28;20120;-76
2022/11/13 10:05:34;;;;;;;12.98;8.13;;;4.90;99.90;;;;;;5024796;28;20049;-76
2022/11/13 10:08:10;;;;;;;11.88;8.23;;;5.00;99.90;;;;;;5024520;28;20044;-75
2022/11/13 10:10:43;;;;;;;14.48;7.80;;;5.00;99.90;;;;;;5029409;28;20582;-76
2022/11/13 10:13:14;;;;;;;14.52;8.70;;;5.00;99.90;;;;;;5032134;28;20497;-76
2022/11/13 10:15:42;;;;;;;12.55;7.85;;;5.00;99.90;;;;;;5032893;28;20539;-77
2022/11/13 10:18:20;;;;;;;14.23;8.63;;;5.00;99.90;;;;;;5030704;28;20033;-77
2022/11/13 10:21:08;;;;;;;11.60;8.23;;;5.10;99.90;;;;;;5029967;28;20045;-76
2022/11/13 10:23:37;;;;;;;11.40;7.45;;;5.10;99.90;;;;;;5031940;28;20025;-76
2022/11/13 10:26:29;;;;;;;12.43;8.05;;;5.00;99.90;;;;;;5030588;28;20032;-76
2022/11/13 10:29:13;;;;;;;12.45;8.70;;;4.90;99.90;;;;;;5030792;28;20041;-76
2022/11/13 10:31:50;;;;;;;13.35;9.15;;;4.90;99.90;;;;;;5034871;28;20089;-77
2022/11/13 10:34:17;;;;;;;15.07;8.82;;;5.00;99.90;;;;;;5037645;28;20029;-76
2022/11/13 10:37:01;;;;;;;13.35;8.82;;;4.90;99.90;;;;;;5025422;28;20036;-76
2022/11/13 10:39:45;;;;;;;16.05;9.35;;;5.00;99.90;;;;;;5030019;28;20025;-77
2022/11/13 10:42:22;;;;;;;18.38;10.05;;;5.00;99.90;;;;;;5030317;28;20060;-77
2022/11/13 10:45:12;;;;;;;14.70;8.90;;;5.10;99.90;;;;;;5032783;28;20083;-76
2022/11/13 10:47:46;;;;;;;12.82;8.70;;;5.10;99.90;;;;;;5032699;28;20390;-76
2022/11/13 10:50:31;;;;;;;15.20;10.20;;;5.20;99.90;;;;;;5030464;28;20031;-76
2022/11/13 10:53:00;;;;;;;15.75;9.30;;;5.20;99.90;;;;;;5030247;28;20033;-77
2022/11/13 10:55:40;;;;;;;13.18;9.07;;;5.30;99.90;;;;;;5033258;28;20033;-77
2022/11/13 10:58:11;;;;;;;15.90;10.07;;;5.30;99.90;;;;;;5026688;28;20057;-76
2022/11/13 11:00:40;;;;;;;12.60;9.27;;;5.40;99.90;;;;;;5033468;28;20073;-76
2022/11/13 11:03:23;;;;;;;11.98;8.73;;;5.40;99.90;;;;;;5033015;28;20021;-76
2022/11/13 11:06:03;;;;;;;13.77;9.83;;;5.40;99.90;;;;;;5025888;28;20022;-76
2022/11/13 11:08:32;;;;;;;12.20;9.02;;;5.50;99.90;;;;;;5028716;28;20029;-76
2022/11/13 11:13:51;;;;;;;13.48;9.55;;;5.60;99.90;;;;;;5031469;28;20032;-77
2022/11/13 11:16:24;;;;;;;14.98;10.48;;;5.60;99.90;;;;;;5028580;28;20034;-77
2022/11/13 11:19:00;;;;;;;14.45;9.57;;;5.70;99.90;;;;;;5027951;28;20025;-77
2022/11/13 11:21:30;;;;;;;14.38;9.93;;;5.70;99.90;;;;;;5031321;28;20037;-77
2022/11/13 11:24:10;;;;;;;12.85;9.38;;;5.80;99.90;;;;;;5028943;28;20017;-77
2022/11/13 11:26:46;;;;;;;16.05;10.23;;;5.80;99.90;;;;;;5025883;28;20117;-77
2022/11/13 11:29:23;;;;;;;15.05;10.32;;;5.80;99.90;;;;;;5026482;28;20021;-77
2022/11/13 11:32:01;;;;;;;14.18;9.85;;;5.80;99.90;;;;;;5032914;28;20498;-77
2022/11/13 11:34:41;;;;;;;15.27;10.52;;;5.80;99.90;;;;;;5031202;28;20029;-77
2022/11/13 11:37:30;;;;;;;15.07;10.90;;;5.80;99.90;;;;;;5030341;28;20498;-77
2022/11/13 11:40:24;;;;;;;18.83;11.13;;;5.80;99.90;;;;;;5031360;28;20056;-77
2022/11/13 11:43:04;;;;;;;14.55;10.05;;;5.80;99.90;;;;;;5030323;28;20482;-77
2022/11/13 11:45:43;;;;;;;16.80;10.73;;;5.80;99.90;;;;;;5028562;28;20045;-76
2022/11/13 11:48:21;;;;;;;14.23;10.00;;;5.70;99.90;;;;;;5025198;28;20506;-76
2022/11/13 11:51:01;;;;;;;18.40;11.93;;;5.80;99.90;;;;;;5026878;28;20060;-77
2022/11/13 11:53:55;;;;;;;14.57;10.32;;;5.80;99.90;;;;;;5029651;28;20025;-77
2022/11/13 11:57:13;;;;;;;17.92;11.45;;;5.90;99.90;;;;;;5031870;28;20692;-78
2022/11/13 12:00:03;;;;;;;19.25;12.43;;;6.00;99.90;;;;;;5027817;28;20033;-77
2022/11/13 12:02:57;;;;;;;18.67;11.80;;;6.10;99.90;;;;;;5027981;28;20212;-77
2022/11/13 12:06:03;;;;;;;16.58;10.82;;;6.10;99.90;;;;;;5010653;28;21421;-76
2022/11/13 12:08:52;;;;;;;15.05;10.63;;;6.10;99.90;;;;;;5037539;28;20029;-78
2022/11/13 12:11:20;;;;;;;15.55;10.63;;;6.10;99.90;;;;;;5029453;28;20029;-78
2022/11/13 12:14:04;;;;;;;18.45;12.20;;;6.10;99.90;;;;;;5023681;28;20021;-78
2022/11/13 12:16:35;;;;;;;;;;;6.20;99.90;;;;;;5034402;28;20029;-78
2022/11/13 12:19:14;;;;;;;18.70;11.43;;;6.20;99.90;;;;;;5039420;28;19916;-78
2022/11/13 12:21:59;;;;;;;16.35;10.90;;;6.20;99.90;;;;;;5037187;28;20041;-79
2022/11/13 12:24:53;;;;;;;18.05;11.10;;;6.30;99.90;;;;;;5038973;28;20032;-78
2022/11/13 12:27:46;;;;;;;15.95;10.88;;;6.30;99.90;;;;;;5027302;28;20122;-77
2022/11/13 12:30:22;;;;;;;17.40;10.38;;;6.30;99.90;;;;;;5029017;28;20037;-76
2022/11/13 12:33:05;;;;;;;18.35;11.65;;;6.30;99.90;;;;;;5036514;28;20089;-77
2022/11/13 12:35:35;;;;;;;18.70;12.20;;;6.40;99.90;;;;;;5027979;28;20033;-77
2022/11/13 12:38:07;;;;;;;17.33;11.18;;;6.40;99.90;;;;;;5027674;28;20253;-75
2022/11/13 12:40:50;;;;;;;17.90;11.48;;;6.50;99.90;;;;;;5021800;28;20130;-75
2022/11/13 12:43:56;;;;;;;18.45;12.02;;;6.50;99.90;;;;;;5037478;28;20474;-77
2022/11/13 12:46:31;;;;;;;17.15;11.02;;;6.60;99.90;;;;;;5027378;28;20029;-76
2022/11/13 12:48:59;;;;;;;16.95;11.60;;;6.60;99.90;;;;;;5028676;28;20034;-77
2022/11/13 12:51:36;;;;;;;18.10;12.68;;;6.70;99.90;;;;;;5026305;28;20087;-77
2022/11/13 12:54:01;;;;;;;21.05;12.48;;;6.70;99.90;;;;;;5020916;28;20106;-77
2022/11/13 12:56:27;;;;;;;18.98;11.18;;;6.70;99.90;;;;;;5031479;28;20026;-77
2022/11/13 12:59:01;;;;;;;15.95;11.02;;;6.80;99.90;;;;;;5024366;28;20034;-77
2022/11/13 13:01:32;;;;;;;15.75;11.40;;;6.80;99.90;;;;;;5028429;28;20409;-77
2022/11/13 13:04:04;;;;;;;16.80;11.52;;;6.80;99.90;;;;;;5030122;28;20025;-77
2022/11/13 13:07:11;;;;;;;19.52;13.00;;;6.80;99.90;;;;;;5033160;28;20837;-77
2022/11/13 13:10:05;;;;;;;18.42;11.98;;;6.80;99.90;;;;;;5030411;28;20049;-77
2022/11/13 13:13:02;;;;;;;20.35;11.80;;;6.80;99.90;;;;;;5025974;28;20033;-77
2022/11/13 13:15:36;;;;;;;19.38;12.77;;;6.90;99.90;;;;;;5032967;28;20025;-76